createdAt,value
2023-01-22T00:00:16.291Z,97.97
2023-01-22T00:00:49.337Z,97.34
2023-01-22T00:01:21.844Z,97.13
2023-01-22T00:01:54.378Z,96.92
2023-01-22T00:02:26.904Z,96.40
2023-01-22T00:02:59.432Z,96.19
2023-01-22T00:03:31.885Z,96.09
2023-01-22T00:04:04.373Z,95.88
2023-01-22T00:04:36.779Z,95.56
2023-01-22T00:05:09.295Z,95.15
2023-01-22T00:05:41.733Z,95.56
2023-01-22T00:06:14.156Z,95.15
2023-01-22T00:06:46.633Z,95.56
2023-01-22T00:07:20.337Z,95.25
2023-01-22T00:07:53.551Z,94.10
2023-01-22T00:08:26.089Z,93.48
2023-01-22T00:08:58.531Z,93.27
2023-01-22T00:09:31.057Z,93.16
2023-01-22T00:10:03.676Z,93.37
2023-01-22T00:10:36.109Z,94.42
2023-01-22T00:11:08.557Z,95.56
2023-01-22T00:11:41.006Z,96.09
2023-01-22T00:12:13.445Z,95.36
2023-01-22T00:12:45.943Z,94.73
2023-01-22T00:13:18.432Z,94.73
2023-01-22T00:13:50.913Z,94.52
2023-01-22T00:14:23.396Z,95.56
2023-01-22T00:14:55.813Z,96.30
2023-01-22T00:15:28.290Z,96.40
2023-01-22T00:16:00.856Z,96.50
2023-01-22T00:16:33.224Z,95.88
2023-01-22T00:17:05.689Z,94.94
2023-01-22T00:17:38.134Z,94.42
2023-01-22T00:18:10.643Z,94.21
2023-01-22T00:18:43.063Z,93.69
2023-01-22T00:19:15.572Z,93.16
2023-01-22T00:19:48.092Z,92.75
2023-01-22T00:20:20.858Z,92.96
2023-01-22T00:20:53.096Z,93.59
2023-01-22T00:21:25.508Z,93.90
2023-01-22T00:21:58.124Z,94.21
2023-01-22T00:22:30.574Z,94.52
2023-01-22T00:23:03.034Z,94.84
2023-01-22T00:23:35.453Z,95.36
2023-01-22T00:24:07.883Z,95.46
2023-01-22T00:24:40.311Z,96.50
2023-01-22T00:25:12.751Z,96.82
2023-01-22T00:25:45.171Z,96.71
2023-01-22T00:26:17.681Z,96.50
2023-01-22T00:26:50.173Z,96.09
2023-01-22T00:27:22.622Z,95.04
2023-01-22T00:27:55.072Z,94.63
2023-01-22T00:28:27.504Z,94.52
2023-01-22T00:29:00.044Z,94.52
2023-01-22T00:29:32.576Z,94.52
2023-01-22T00:30:05.136Z,94.52
2023-01-22T00:30:37.580Z,94.84
2023-01-22T00:31:10.100Z,95.15
2023-01-22T00:31:42.548Z,95.15
2023-01-22T00:32:15.045Z,95.04
2023-01-22T00:32:47.431Z,94.84
2023-01-22T00:33:19.900Z,94.21
2023-01-22T00:33:52.365Z,93.48
2023-01-22T00:34:24.854Z,93.69
2023-01-22T00:34:57.321Z,94.10
2023-01-22T00:35:29.745Z,94.00
2023-01-22T00:36:02.290Z,93.69
2023-01-22T00:36:34.816Z,93.69
2023-01-22T00:37:07.274Z,93.59
2023-01-22T00:37:39.729Z,93.59
2023-01-22T00:38:12.195Z,93.69
2023-01-22T00:38:44.723Z,93.48
2023-01-22T00:39:17.159Z,93.48
2023-01-22T00:39:49.697Z,93.48
2023-01-22T00:40:22.144Z,93.59
2023-01-22T00:40:54.633Z,93.79
2023-01-22T00:41:27.076Z,93.90
2023-01-22T00:41:59.543Z,94.10
2023-01-22T00:42:31.985Z,94.31
2023-01-22T00:43:04.436Z,94.42
2023-01-22T00:43:36.860Z,95.04
2023-01-22T00:44:09.302Z,94.73
2023-01-22T00:44:41.749Z,94.31
2023-01-22T00:45:14.211Z,94.00
2023-01-22T00:45:46.646Z,94.94
2023-01-22T00:46:19.162Z,95.67
2023-01-22T00:46:51.588Z,95.98
2023-01-22T00:47:23.975Z,96.19
2023-01-22T00:47:56.416Z,96.50
2023-01-22T00:48:28.855Z,96.50
2023-01-22T00:49:01.285Z,96.30
2023-01-22T00:49:33.699Z,96.09
2023-01-22T00:50:06.133Z,96.09
2023-01-22T00:50:38.607Z,96.50
2023-01-22T00:51:11.082Z,96.50
2023-01-22T00:51:43.514Z,97.03
2023-01-22T00:52:15.947Z,96.50
2023-01-22T00:52:48.375Z,96.30
2023-01-22T00:53:20.813Z,96.50
2023-01-22T00:53:53.317Z,96.50
2023-01-22T00:54:25.789Z,97.55
2023-01-22T00:54:58.282Z,98.07
2023-01-22T00:55:30.733Z,97.86
2023-01-22T00:56:03.159Z,97.34
2023-01-22T00:56:35.663Z,97.65
2023-01-22T00:57:08.150Z,98.69
2023-01-22T00:57:40.591Z,99.32
2023-01-22T00:58:13.045Z,99.11
2023-01-22T00:58:46.811Z,98.90
2023-01-22T00:59:19.257Z,98.80
2023-01-22T00:59:51.773Z,99.32
2023-01-22T01:00:24.276Z,99.53
2023-01-22T01:00:57.018Z,99.63
2023-01-22T01:01:29.710Z,99.74
2023-01-22T01:02:02.255Z,99.63
2023-01-22T01:02:34.849Z,99.32
2023-01-22T01:03:07.220Z,99.22
2023-01-22T01:03:40.252Z,99.43
2023-01-22T01:04:13.813Z,99.11
2023-01-22T01:04:46.501Z,98.18
2023-01-22T01:05:20.601Z,97.75
2023-01-22T01:05:55.478Z,97.55
2023-01-22T01:06:29.071Z,97.97
2023-01-22T01:07:01.558Z,98.28
2023-01-22T01:07:34.066Z,99.01
2023-01-22T01:08:06.638Z,99.53
2023-01-22T01:08:40.546Z,99.95
2023-01-22T01:09:13.019Z,99.99
2023-01-22T01:09:45.491Z,99.43
2023-01-22T01:10:18.849Z,99.11
2023-01-22T01:10:51.765Z,99.01
2023-01-22T01:11:24.209Z,99.01
2023-01-22T01:11:56.899Z,98.80
2023-01-22T01:12:29.329Z,98.49
2023-01-22T01:13:01.881Z,98.90
2023-01-22T01:13:34.361Z,99.43
2023-01-22T01:14:06.936Z,99.74
2023-01-22T01:14:40.446Z,99.99
2023-01-22T01:15:12.915Z,99.99
2023-01-22T01:15:45.401Z,99.99
2023-01-22T01:16:17.888Z,99.99
2023-01-22T01:16:50.234Z,99.99
2023-01-22T01:17:22.724Z,99.95
2023-01-22T01:17:55.176Z,99.95
2023-01-22T01:18:27.659Z,99.99
2023-01-22T01:19:00.185Z,99.99
2023-01-22T01:19:34.566Z,99.84
2023-01-22T01:20:09.088Z,99.32
2023-01-22T01:20:41.223Z,99.22
2023-01-22T01:21:14.114Z,98.69
2023-01-22T01:21:48.148Z,98.28
2023-01-22T01:22:21.654Z,98.18
2023-01-22T01:22:54.755Z,99.32
2023-01-22T01:23:27.421Z,99.74
2023-01-22T01:23:59.891Z,99.95
2023-01-22T01:24:33.139Z,99.99
2023-01-22T01:25:05.753Z,99.99
2023-01-22T01:25:38.342Z,99.99
2023-01-22T01:26:11.357Z,99.99
2023-01-22T01:26:43.981Z,99.99
2023-01-22T01:27:16.850Z,99.99
2023-01-22T01:27:49.354Z,99.99
2023-01-22T01:28:21.856Z,99.99
2023-01-22T01:28:54.346Z,99.99
2023-01-22T01:29:26.862Z,99.99
2023-01-22T01:29:59.370Z,99.99
2023-01-22T01:30:32.273Z,99.99
2023-01-22T01:31:07.865Z,99.99
2023-01-22T01:31:40.263Z,99.99
2023-01-22T01:32:12.697Z,99.99
2023-01-22T01:32:45.479Z,99.99
2023-01-22T01:33:17.979Z,99.99
2023-01-22T01:33:50.411Z,99.47
2023-01-22T01:34:22.907Z,99.22
2023-01-22T01:34:55.343Z,98.80
2023-01-22T01:35:27.769Z,98.80
2023-01-22T01:36:00.318Z,99.05
2023-01-22T01:37:05.282Z,99.95
2023-01-22T01:37:37.724Z,99.99
2023-01-22T01:38:10.158Z,99.99
2023-01-22T01:38:42.686Z,99.89
2023-01-22T01:39:15.197Z,99.99
2023-01-22T01:39:47.607Z,99.99
2023-01-22T01:40:20.222Z,99.99
2023-01-22T01:40:52.623Z,99.22
2023-01-22T01:41:25.055Z,98.90
2023-01-22T01:41:57.523Z,99.01
2023-01-22T01:42:30.053Z,99.74
2023-01-22T01:43:02.478Z,99.99
2023-01-22T01:43:34.996Z,99.01
2023-01-22T01:44:07.429Z,98.07
2023-01-22T01:44:39.972Z,97.65
2023-01-22T01:45:12.485Z,97.80
2023-01-22T01:45:44.934Z,97.70
2023-01-22T01:46:17.462Z,97.86
2023-01-22T01:46:49.898Z,98.01
2023-01-22T01:47:22.337Z,98.69
2023-01-22T01:47:54.767Z,99.63
2023-01-22T01:48:27.212Z,99.95
2023-01-22T01:48:59.703Z,99.99
2023-01-22T01:49:32.184Z,99.99
2023-01-22T01:50:04.636Z,99.99
2023-01-22T01:50:37.053Z,99.99
2023-01-22T01:51:09.625Z,99.99
2023-01-22T01:51:42.094Z,99.99
2023-01-22T01:52:14.524Z,99.99
2023-01-22T01:52:46.972Z,99.99
2023-01-22T01:53:19.445Z,99.99
2023-01-22T01:53:51.941Z,99.99
2023-01-22T01:54:24.462Z,99.79
2023-01-22T01:54:56.970Z,99.05
2023-01-22T01:55:29.488Z,98.74
2023-01-22T01:56:01.968Z,98.28
2023-01-22T01:56:34.465Z,98.53
2023-01-22T01:57:06.961Z,99.32
2023-01-22T01:57:39.388Z,99.84
2023-01-22T01:58:11.843Z,99.95
2023-01-22T01:58:44.304Z,99.74
2023-01-22T01:59:16.751Z,99.32
2023-01-22T01:59:49.243Z,98.63
2023-01-22T02:00:21.689Z,98.22
2023-01-22T02:00:54.272Z,98.01
2023-01-22T02:01:26.681Z,98.07
2023-01-22T02:01:59.149Z,98.49
2023-01-22T02:02:31.594Z,99.11
2023-01-22T02:03:04.029Z,98.80
2023-01-22T02:03:36.480Z,97.86
2023-01-22T02:04:08.974Z,98.28
2023-01-22T02:04:41.397Z,98.90
2023-01-22T02:05:13.888Z,98.53
2023-01-22T02:05:46.357Z,98.18
2023-01-22T02:06:18.847Z,97.59
2023-01-22T02:06:51.352Z,97.17
2023-01-22T02:07:23.866Z,97.17
2023-01-22T02:07:56.410Z,97.17
2023-01-22T02:08:28.875Z,96.66
2023-01-22T02:09:01.331Z,97.07
2023-01-22T02:09:33.837Z,96.86
2023-01-22T02:10:06.271Z,96.76
2023-01-22T02:10:38.801Z,97.75
2023-01-22T02:11:11.291Z,98.49
2023-01-22T02:11:43.959Z,99.32
2023-01-22T02:12:16.399Z,99.84
2023-01-22T02:12:48.893Z,99.95
2023-01-22T02:13:21.358Z,99.43
2023-01-22T02:13:53.842Z,99.01
2023-01-22T02:14:26.312Z,99.01
2023-01-22T02:14:58.791Z,99.22
2023-01-22T02:15:31.357Z,99.63
2023-01-22T02:16:03.893Z,99.68
2023-01-22T02:16:36.382Z,99.89
2023-01-22T02:17:08.742Z,99.37
2023-01-22T02:17:41.229Z,98.85
2023-01-22T02:18:13.715Z,98.63
2023-01-22T02:18:46.671Z,98.95
2023-01-22T02:19:19.127Z,98.74
2023-01-22T02:19:51.639Z,98.22
2023-01-22T02:20:24.062Z,98.22
2023-01-22T02:20:56.512Z,99.05
2023-01-22T02:21:28.966Z,99.37
2023-01-22T02:22:01.484Z,99.26
2023-01-22T02:22:33.996Z,98.85
2023-01-22T02:23:06.473Z,99.16
2023-01-22T02:23:38.932Z,99.79
2023-01-22T02:24:11.414Z,99.99
2023-01-22T02:24:43.908Z,99.79
2023-01-22T02:25:16.380Z,99.16
2023-01-22T02:25:48.867Z,99.68
2023-01-22T02:26:21.331Z,99.57
2023-01-22T02:26:54.544Z,99.79
2023-01-22T02:27:26.984Z,99.99
2023-01-22T02:27:59.503Z,99.99
2023-01-22T02:28:31.951Z,99.68
2023-01-22T02:29:04.515Z,99.26
2023-01-22T02:29:36.938Z,98.63
2023-01-22T02:30:09.414Z,98.11
2023-01-22T02:30:41.902Z,97.70
2023-01-22T02:31:14.392Z,97.49
2023-01-22T02:31:46.874Z,97.17
2023-01-22T02:32:19.299Z,97.07
2023-01-22T02:32:51.733Z,97.38
2023-01-22T02:33:24.159Z,97.70
2023-01-22T02:33:56.670Z,98.22
2023-01-22T02:34:30.039Z,98.74
2023-01-22T02:35:02.514Z,98.63
2023-01-22T02:35:34.949Z,98.43
2023-01-22T02:36:07.386Z,98.43
2023-01-22T02:36:39.906Z,98.32
2023-01-22T02:37:12.382Z,98.01
2023-01-22T02:37:44.820Z,97.70
2023-01-22T02:38:17.278Z,97.59
2023-01-22T02:38:49.791Z,98.11
2023-01-22T02:39:22.242Z,98.85
2023-01-22T02:39:54.751Z,98.74
2023-01-22T02:40:27.241Z,98.32
2023-01-22T02:40:59.697Z,98.11
2023-01-22T02:41:32.148Z,97.59
2023-01-22T02:42:04.680Z,97.49
2023-01-22T02:42:37.183Z,97.91
2023-01-22T02:43:09.627Z,98.22
2023-01-22T02:43:42.116Z,97.91
2023-01-22T02:44:14.534Z,97.70
2023-01-22T02:44:46.999Z,97.49
2023-01-22T02:45:19.526Z,97.17
2023-01-22T02:45:51.991Z,96.86
2023-01-22T02:46:24.409Z,96.55
2023-01-22T02:46:56.867Z,96.44
2023-01-22T02:47:29.310Z,96.76
2023-01-22T02:48:01.820Z,97.38
2023-01-22T02:48:34.411Z,97.70
2023-01-22T02:49:06.947Z,98.43
2023-01-22T02:49:39.448Z,98.95
2023-01-22T02:50:11.925Z,98.43
2023-01-22T02:50:44.440Z,98.01
2023-01-22T02:51:17.062Z,97.80
2023-01-22T02:51:49.367Z,97.91
2023-01-22T02:52:21.877Z,98.74
2023-01-22T02:52:54.368Z,99.37
2023-01-22T02:53:26.858Z,99.68
2023-01-22T02:53:59.370Z,99.16
2023-01-22T02:54:31.816Z,98.85
2023-01-22T02:55:04.298Z,98.43
2023-01-22T02:55:36.736Z,98.43
2023-01-22T02:56:09.209Z,98.22
2023-01-22T02:56:41.698Z,98.22
2023-01-22T02:57:14.205Z,98.01
2023-01-22T02:57:46.647Z,97.38
2023-01-22T02:58:19.153Z,97.28
2023-01-22T02:58:51.612Z,97.70
2023-01-22T02:59:24.047Z,97.49
2023-01-22T02:59:56.482Z,97.38
2023-01-22T03:00:28.896Z,97.28
2023-01-22T03:01:01.381Z,97.28
2023-01-22T03:01:33.843Z,96.86
2023-01-22T03:02:06.324Z,96.55
2023-01-22T03:02:38.803Z,96.44
2023-01-22T03:03:11.265Z,96.34
2023-01-22T03:03:43.704Z,96.23
2023-01-22T03:04:16.124Z,96.34
2023-01-22T03:04:48.717Z,96.76
2023-01-22T03:05:21.204Z,97.38
2023-01-22T03:05:53.671Z,97.17
2023-01-22T03:06:26.141Z,96.86
2023-01-22T03:06:58.649Z,96.66
2023-01-22T03:07:31.124Z,96.44
2023-01-22T03:08:03.587Z,96.55
2023-01-22T03:08:36.044Z,97.70
2023-01-22T03:09:08.547Z,97.70
2023-01-22T03:09:41.043Z,98.11
2023-01-22T03:10:13.535Z,98.22
2023-01-22T03:10:46.077Z,97.80
2023-01-22T03:11:18.543Z,97.38
2023-01-22T03:11:50.994Z,97.07
2023-01-22T03:12:23.452Z,96.97
2023-01-22T03:12:55.940Z,96.76
2023-01-22T03:13:28.426Z,96.76
2023-01-22T03:14:00.969Z,96.66
2023-01-22T03:14:33.384Z,96.66
2023-01-22T03:15:05.914Z,96.86
2023-01-22T03:15:38.368Z,96.76
2023-01-22T03:16:10.929Z,97.17
2023-01-22T03:16:43.426Z,97.28
2023-01-22T03:17:15.923Z,97.17
2023-01-22T03:17:48.374Z,97.07
2023-01-22T03:18:20.834Z,96.97
2023-01-22T03:18:53.313Z,97.28
2023-01-22T03:19:25.759Z,97.38
2023-01-22T03:19:58.231Z,97.17
2023-01-22T03:20:30.679Z,96.97
2023-01-22T03:21:03.127Z,96.76
2023-01-22T03:21:35.552Z,96.55
2023-01-22T03:22:08.032Z,96.76
2023-01-22T03:22:40.516Z,96.86
2023-01-22T03:23:12.949Z,97.07
2023-01-22T03:23:45.398Z,98.01
2023-01-22T03:24:17.848Z,98.53
2023-01-22T03:24:50.267Z,98.63
2023-01-22T03:25:22.701Z,98.53
2023-01-22T03:25:55.145Z,98.32
2023-01-22T03:26:27.600Z,98.53
2023-01-22T03:27:00.095Z,98.85
2023-01-22T03:27:32.542Z,98.63
2023-01-22T03:28:04.999Z,98.63
2023-01-22T03:28:37.526Z,99.05
2023-01-22T03:29:09.952Z,99.37
2023-01-22T03:29:42.423Z,99.37
2023-01-22T03:30:14.909Z,99.26
2023-01-22T03:30:47.415Z,99.26
2023-01-22T03:31:19.930Z,99.26
2023-01-22T03:31:52.328Z,99.16
2023-01-22T03:32:24.788Z,99.16
2023-01-22T03:32:57.282Z,99.05
2023-01-22T03:33:29.820Z,99.05
2023-01-22T03:34:02.420Z,99.79
2023-01-22T03:34:35.016Z,99.99
2023-01-22T03:35:07.598Z,99.99
2023-01-22T03:35:40.080Z,99.99
2023-01-22T03:36:12.511Z,99.99
2023-01-22T03:36:44.950Z,99.99
2023-01-22T03:37:17.381Z,99.99
2023-01-22T03:37:49.888Z,99.99
2023-01-22T03:38:22.379Z,99.99
2023-01-22T03:38:54.852Z,99.99
2023-01-22T03:39:27.287Z,99.99
2023-01-22T03:39:59.786Z,99.99
2023-01-22T03:40:32.258Z,99.99
2023-01-22T03:41:04.777Z,99.99
2023-01-22T03:41:37.241Z,99.99
2023-01-22T03:42:09.697Z,99.99
2023-01-22T03:42:42.186Z,99.99
2023-01-22T03:43:14.634Z,99.99
2023-01-22T03:43:47.137Z,99.99
2023-01-22T03:44:19.590Z,99.99
2023-01-22T03:44:52.109Z,99.99
2023-01-22T03:45:24.553Z,99.99
2023-01-22T03:45:57.031Z,99.99
2023-01-22T03:46:29.480Z,99.99
2023-01-22T03:47:01.962Z,99.99
2023-01-22T03:47:34.542Z,99.99
2023-01-22T03:48:07.054Z,99.99
2023-01-22T03:48:39.505Z,99.99
2023-01-22T03:49:11.954Z,99.99
2023-01-22T03:49:44.402Z,99.99
2023-01-22T03:50:17.027Z,99.99
2023-01-22T03:50:49.363Z,99.99
2023-01-22T03:51:21.803Z,99.99
2023-01-22T03:51:54.230Z,99.99
2023-01-22T03:52:26.700Z,99.99
2023-01-22T03:52:59.182Z,99.99
2023-01-22T03:53:31.667Z,99.99
2023-01-22T03:54:04.170Z,99.99
2023-01-22T03:54:36.807Z,99.99
2023-01-22T03:55:09.317Z,99.99
2023-01-22T03:55:41.845Z,99.99
2023-01-22T03:56:14.314Z,99.99
2023-01-22T03:56:46.767Z,99.99
2023-01-22T03:57:19.182Z,99.99
2023-01-22T03:57:51.656Z,99.99
2023-01-22T03:58:24.076Z,99.99
2023-01-22T03:58:56.531Z,99.99
2023-01-22T03:59:29.030Z,99.99
2023-01-22T04:00:01.492Z,99.99
2023-01-22T04:00:33.898Z,99.99
2023-01-22T04:01:06.461Z,99.99
2023-01-22T04:01:38.875Z,99.99
2023-01-22T04:02:11.473Z,99.99
2023-01-22T04:02:44.114Z,99.99
2023-01-22T04:03:16.556Z,99.99
2023-01-22T04:03:49.033Z,99.99
2023-01-22T04:04:21.562Z,99.99
2023-01-22T04:04:54.076Z,99.99
2023-01-22T04:05:26.605Z,99.99
2023-01-22T04:05:59.145Z,99.99
2023-01-22T04:06:31.618Z,99.99
2023-01-22T04:07:04.081Z,99.99
2023-01-22T04:07:36.599Z,99.99
2023-01-22T04:08:09.066Z,99.99
2023-01-22T04:08:41.565Z,99.99
2023-01-22T04:09:14.148Z,99.99
2023-01-22T04:09:46.637Z,99.99
2023-01-22T04:10:19.460Z,99.99
2023-01-22T04:10:51.581Z,99.99
2023-01-22T04:11:24.145Z,99.99
2023-01-22T04:11:56.572Z,99.99
2023-01-22T04:12:29.001Z,99.99
2023-01-22T04:13:01.470Z,99.99
2023-01-22T04:13:33.930Z,99.99
2023-01-22T04:14:06.357Z,99.99
2023-01-22T04:14:38.842Z,99.99
2023-01-22T04:15:11.386Z,99.99
2023-01-22T04:15:43.875Z,99.99
2023-01-22T04:16:16.413Z,99.99
2023-01-22T04:16:48.863Z,99.99
2023-01-22T04:17:21.284Z,99.99
2023-01-22T04:17:53.718Z,99.99
2023-01-22T04:18:26.168Z,99.99
2023-01-22T04:18:58.640Z,99.99
2023-01-22T04:19:31.084Z,99.99
2023-01-22T04:20:03.544Z,99.99
2023-01-22T04:20:36.079Z,99.99
2023-01-22T04:21:08.538Z,99.99
2023-01-22T04:21:41.173Z,99.99
2023-01-22T04:22:13.671Z,99.99
2023-01-22T04:22:46.237Z,99.99
2023-01-22T04:23:18.703Z,99.99
2023-01-22T04:23:51.202Z,99.99
2023-01-22T04:24:23.694Z,99.99
2023-01-22T04:24:56.193Z,99.99
2023-01-22T04:25:28.679Z,99.99
2023-01-22T04:26:01.126Z,99.99
2023-01-22T04:26:33.574Z,99.99
2023-01-22T04:27:06.054Z,99.99
2023-01-22T04:27:38.526Z,99.99
2023-01-22T04:28:10.999Z,99.99
2023-01-22T04:28:43.483Z,99.99
2023-01-22T04:29:15.930Z,99.99
2023-01-22T04:29:48.453Z,99.99
2023-01-22T04:30:20.931Z,99.99
2023-01-22T04:30:53.518Z,99.99
2023-01-22T04:31:26.140Z,99.99
2023-01-22T04:31:58.464Z,99.99
2023-01-22T04:32:30.926Z,99.99
2023-01-22T04:33:03.431Z,99.99
2023-01-22T04:33:35.934Z,99.99
2023-01-22T04:34:08.391Z,99.99
2023-01-22T04:34:41.008Z,99.99
2023-01-22T04:35:13.544Z,99.99
2023-01-22T04:35:46.035Z,99.99
2023-01-22T04:36:18.496Z,99.99
2023-01-22T04:36:50.979Z,99.99
2023-01-22T04:37:23.444Z,99.99
2023-01-22T04:37:55.924Z,99.99
2023-01-22T04:38:28.513Z,99.99
2023-01-22T04:39:00.823Z,99.99
2023-01-22T04:39:33.349Z,99.99
2023-01-22T04:40:06.194Z,99.99
2023-01-22T04:40:38.769Z,99.99
2023-01-22T04:41:11.225Z,99.99
2023-01-22T04:41:43.650Z,99.99
2023-01-22T04:42:16.162Z,99.99
2023-01-22T04:42:48.648Z,99.99
2023-01-22T04:43:21.132Z,99.99
2023-01-22T04:43:53.563Z,99.99
2023-01-22T04:44:26.036Z,99.99
2023-01-22T04:44:58.537Z,99.99
2023-01-22T04:45:31.870Z,99.99
2023-01-22T04:46:04.370Z,99.99
2023-01-22T04:46:36.775Z,99.99
2023-01-22T04:47:09.267Z,99.99
2023-01-22T04:47:41.846Z,99.99
2023-01-22T04:48:14.311Z,99.99
2023-01-22T04:48:46.859Z,99.99
2023-01-22T04:49:19.314Z,99.99
2023-01-22T04:49:51.898Z,99.99
2023-01-22T04:50:24.370Z,99.99
2023-01-22T04:50:56.926Z,99.99
2023-01-22T04:51:29.442Z,99.99
2023-01-22T04:52:01.933Z,99.99
2023-01-22T04:52:34.425Z,99.99
2023-01-22T04:53:06.903Z,99.99
2023-01-22T04:53:39.348Z,99.99
2023-01-22T04:54:11.785Z,99.99
2023-01-22T04:54:44.356Z,99.99
2023-01-22T04:55:16.833Z,99.99
2023-01-22T04:55:49.310Z,99.99
2023-01-22T04:56:21.851Z,99.99
2023-01-22T04:56:54.375Z,99.99
2023-01-22T04:57:26.817Z,99.99
2023-01-22T04:57:59.325Z,99.99
2023-01-22T04:58:31.792Z,99.99
2023-01-22T04:59:04.234Z,99.99
2023-01-22T04:59:36.659Z,99.99
2023-01-22T05:00:09.133Z,99.99
2023-01-22T05:00:41.571Z,99.99
2023-01-22T05:01:14.087Z,99.99
2023-01-22T05:01:46.480Z,99.99
2023-01-22T05:02:18.988Z,99.99
2023-01-22T05:02:51.456Z,99.99
2023-01-22T05:03:23.917Z,99.99
2023-01-22T05:03:56.355Z,99.99
2023-01-22T05:04:28.788Z,99.99
2023-01-22T05:05:01.265Z,99.99
2023-01-22T05:05:33.895Z,99.99
2023-01-22T05:06:06.381Z,99.99
2023-01-22T05:06:38.884Z,99.99
2023-01-22T05:07:11.360Z,99.99
2023-01-22T05:07:43.808Z,99.99
2023-01-22T05:08:16.262Z,99.99
2023-01-22T05:08:48.767Z,99.99
2023-01-22T05:09:21.211Z,99.99
2023-01-22T05:09:53.638Z,99.99
2023-01-22T05:10:26.126Z,99.99
2023-01-22T05:10:58.600Z,99.99
2023-01-22T05:11:31.022Z,99.99
2023-01-22T05:12:03.472Z,99.99
2023-01-22T05:12:35.928Z,99.99
2023-01-22T05:13:08.601Z,99.99
2023-01-22T05:13:48.635Z,99.99
2023-01-22T05:14:21.209Z,99.99
2023-01-22T05:14:53.738Z,99.99
2023-01-22T05:15:26.251Z,99.99
2023-01-22T05:15:58.801Z,99.99
2023-01-22T05:16:31.255Z,99.99
2023-01-22T05:17:03.733Z,99.99
2023-01-22T05:17:36.208Z,99.99
2023-01-22T05:18:08.656Z,99.99
2023-01-22T05:18:41.113Z,99.99
2023-01-22T05:19:13.613Z,99.99
2023-01-22T05:19:46.175Z,99.99
2023-01-22T05:20:18.830Z,99.99
2023-01-22T05:20:51.214Z,99.99
2023-01-22T05:21:23.801Z,99.99
2023-01-22T05:21:56.263Z,99.99
2023-01-22T05:22:28.849Z,99.99
2023-01-22T05:23:01.324Z,99.99
2023-01-22T05:23:33.873Z,99.99
2023-01-22T05:24:06.449Z,99.99
2023-01-22T05:24:38.997Z,99.99
2023-01-22T05:25:11.506Z,99.99
2023-01-22T05:25:43.954Z,99.99
2023-01-22T05:26:16.459Z,99.99
2023-01-22T05:26:48.954Z,99.99
2023-01-22T05:27:21.392Z,99.99
2023-01-22T05:27:53.944Z,99.99
2023-01-22T05:28:26.434Z,99.99
2023-01-22T05:28:59.011Z,99.99
2023-01-22T05:29:31.561Z,99.99
2023-01-22T05:30:04.693Z,99.99
2023-01-22T05:30:37.204Z,99.99
2023-01-22T05:31:09.797Z,99.99
2023-01-22T05:31:42.352Z,99.99
2023-01-22T05:32:14.793Z,99.99
2023-01-22T05:32:47.289Z,99.99
2023-01-22T05:33:20.728Z,99.99
2023-01-22T05:33:53.723Z,99.99
2023-01-22T05:34:26.296Z,99.99
2023-01-22T05:34:59.727Z,99.99
2023-01-22T05:35:32.355Z,99.99
2023-01-22T05:36:05.445Z,99.99
2023-01-22T05:36:37.935Z,99.99
2023-01-22T05:37:10.464Z,99.99
2023-01-22T05:37:42.974Z,99.99
2023-01-22T05:38:15.592Z,99.99
2023-01-22T05:38:48.028Z,99.99
2023-01-22T05:39:21.943Z,99.99
2023-01-22T05:39:53.031Z,99.99
2023-01-22T05:40:25.545Z,99.99
2023-01-22T05:40:58.121Z,99.99
2023-01-22T05:41:30.636Z,99.99
2023-01-22T05:42:03.163Z,99.99
2023-01-22T05:42:35.642Z,99.99
2023-01-22T05:43:08.104Z,99.99
2023-01-22T05:43:40.575Z,99.99
2023-01-22T05:44:13.106Z,99.99
2023-01-22T05:44:45.654Z,99.99
2023-01-22T05:45:18.127Z,99.99
2023-01-22T05:45:50.781Z,99.99
2023-01-22T05:46:23.240Z,99.99
2023-01-22T05:46:55.751Z,99.99
2023-01-22T05:47:28.254Z,99.99
2023-01-22T05:48:00.817Z,99.99
2023-01-22T05:48:33.307Z,99.99
2023-01-22T05:49:05.815Z,99.99
2023-01-22T05:49:38.251Z,99.99
2023-01-22T05:50:10.710Z,99.99
2023-01-22T05:50:43.240Z,99.99
2023-01-22T05:51:15.760Z,99.99
2023-01-22T05:51:48.205Z,99.99
2023-01-22T05:52:20.731Z,99.99
2023-01-22T05:52:53.275Z,99.99
2023-01-22T05:53:26.468Z,99.99
2023-01-22T05:53:58.992Z,99.99
2023-01-22T05:54:31.622Z,99.99
2023-01-22T05:55:04.156Z,99.99
2023-01-22T05:55:36.698Z,99.99
2023-01-22T05:56:10.200Z,99.99
2023-01-22T05:56:43.430Z,99.99
2023-01-22T05:57:15.892Z,99.99
2023-01-22T05:57:48.420Z,99.99
2023-01-22T05:58:20.862Z,99.99
2023-01-22T05:58:53.385Z,99.99
2023-01-22T05:59:26.036Z,99.99
2023-01-22T05:59:58.690Z,99.99
2023-01-22T06:00:31.155Z,99.99
2023-01-22T06:01:03.616Z,99.99
2023-01-22T06:01:36.099Z,99.99
2023-01-22T06:02:08.590Z,99.99
2023-01-22T06:02:41.223Z,99.99
2023-01-22T06:03:14.077Z,99.99
2023-01-22T06:03:46.594Z,99.99
2023-01-22T06:04:19.005Z,99.99
2023-01-22T06:04:51.499Z,99.99
2023-01-22T06:05:24.083Z,99.99
2023-01-22T06:05:56.609Z,99.99
2023-01-22T06:06:29.096Z,99.99
2023-01-22T06:07:01.694Z,99.99
2023-01-22T06:07:34.209Z,99.99
2023-01-22T06:08:06.745Z,99.99
2023-01-22T06:08:39.260Z,99.99
2023-01-22T06:09:11.750Z,99.99
2023-01-22T06:09:44.292Z,99.99
2023-01-22T06:10:17.112Z,99.99
2023-01-22T06:10:49.341Z,99.99
2023-01-22T06:11:21.737Z,99.99
2023-01-22T06:11:54.211Z,99.99
2023-01-22T06:12:26.712Z,99.99
2023-01-22T06:12:59.192Z,99.99
2023-01-22T06:13:31.801Z,99.99
2023-01-22T06:14:04.274Z,99.99
2023-01-22T06:14:36.721Z,99.99
2023-01-22T06:15:09.233Z,99.99
2023-01-22T06:15:41.741Z,99.99
2023-01-22T06:16:14.319Z,99.99
2023-01-22T06:16:46.698Z,99.99
2023-01-22T06:17:19.502Z,99.99
2023-01-22T06:17:51.969Z,99.99
2023-01-22T06:18:24.540Z,99.99
2023-01-22T06:18:57.003Z,99.99
2023-01-22T06:19:29.465Z,99.99
2023-01-22T06:20:01.942Z,99.99
2023-01-22T06:20:34.393Z,99.99
2023-01-22T06:21:06.904Z,99.99
2023-01-22T06:21:39.381Z,99.99
2023-01-22T06:22:11.820Z,99.99
2023-01-22T06:22:44.317Z,99.99
2023-01-22T06:23:16.811Z,99.99
2023-01-22T06:23:49.306Z,99.99
2023-01-22T06:24:21.823Z,99.99
2023-01-22T06:24:54.368Z,99.99
2023-01-22T06:25:26.865Z,99.99
2023-01-22T06:25:59.346Z,99.99
2023-01-22T06:26:32.697Z,99.99
2023-01-22T06:27:05.152Z,99.99
2023-01-22T06:27:37.591Z,99.99
2023-01-22T06:28:10.057Z,99.99
2023-01-22T06:28:42.502Z,99.99
2023-01-22T06:29:15.921Z,99.99
2023-01-22T06:29:48.413Z,99.99
2023-01-22T06:30:20.846Z,99.99
2023-01-22T06:30:53.362Z,99.99
2023-01-22T06:31:25.784Z,99.99
2023-01-22T06:31:58.230Z,99.99
2023-01-22T06:32:30.677Z,99.99
2023-01-22T06:33:03.146Z,99.99
2023-01-22T06:33:35.586Z,99.99
2023-01-22T06:34:08.141Z,99.99
2023-01-22T06:34:40.640Z,99.99
2023-01-22T06:35:13.181Z,99.99
2023-01-22T06:35:45.899Z,99.99
2023-01-22T06:36:18.706Z,99.99
2023-01-22T06:36:51.227Z,99.99
2023-01-22T06:37:23.802Z,99.99
2023-01-22T06:37:56.281Z,99.99
2023-01-22T06:38:28.900Z,99.99
2023-01-22T06:39:01.227Z,99.99
2023-01-22T06:39:33.725Z,99.99
2023-01-22T06:40:06.247Z,99.99
2023-01-22T06:40:38.881Z,99.99
2023-01-22T06:41:11.409Z,99.99
2023-01-22T06:41:43.885Z,99.99
2023-01-22T06:42:16.355Z,99.99
2023-01-22T06:42:48.913Z,99.99
2023-01-22T06:43:21.422Z,99.99
2023-01-22T06:43:53.918Z,99.99
2023-01-22T06:44:26.392Z,99.99
2023-01-22T06:44:58.919Z,99.99
2023-01-22T06:45:31.400Z,99.99
2023-01-22T06:46:03.929Z,99.99
2023-01-22T06:46:36.473Z,99.99
2023-01-22T06:47:08.839Z,99.99
2023-01-22T06:47:41.296Z,99.99
2023-01-22T06:48:13.861Z,99.99
2023-01-22T06:48:47.577Z,99.99
2023-01-22T06:49:18.840Z,99.99
2023-01-22T06:49:51.438Z,99.99
2023-01-22T06:50:23.847Z,99.99
2023-01-22T06:50:56.356Z,99.99
2023-01-22T06:51:28.740Z,99.99
2023-01-22T06:52:01.196Z,99.99
2023-01-22T06:52:33.689Z,99.99
2023-01-22T06:53:06.202Z,99.99
2023-01-22T06:53:38.689Z,99.99
2023-01-22T06:54:11.179Z,99.99
2023-01-22T06:54:43.610Z,99.99
2023-01-22T06:55:16.087Z,99.99
2023-01-22T06:55:48.536Z,99.99
2023-01-22T06:56:20.994Z,99.99
2023-01-22T06:56:53.438Z,99.99
2023-01-22T06:57:26.510Z,99.99
2023-01-22T06:57:59.263Z,99.99
2023-01-22T06:58:31.773Z,99.99
2023-01-22T06:59:04.374Z,99.99
2023-01-22T06:59:37.861Z,99.99